Weather at RNAS/RAF Donibristle / HMS Merlin [CLOSED]

Public forecast

Using degrees Celsius for public forecast. Weather courtesy of forecast.io.

Closest aviation weather report (METAR) to RNAS/RAF Donibristle / HMS Merlin

Closest report is Edinburgh Airport, 5.1 nm (9.4 km) S.

2024/05/30 21:20 (retrieved 33 minutes ago)

EGPH 302120Z 36003KT 330V050 CAVOK 14/09 Q1018

Closest aviation forecast (TAF) to RNAS/RAF Donibristle / HMS Merlin

Closest forecast is Edinburgh Airport, 5.1 nm (9.4 km) S.

2024/05/30 18:00 (retrieved 4 hours ago)

TAF EGPH 301657Z 3018/3118 34004KT 9999 SCT040 BECMG 3113/3116 04010KT